東京国際空港の過去48時間の天気

東京国際空港 (Tokyo/Intl)

現在時刻: 1/23 14:47 JST (1/23 05:47 UTC) 以下の時間は現地時間です。

過去48時間のMETAR気象情報
時間 風向 風速(m/s) 視程 気温(℃) 湿度(%) 気圧(hPa) 天気現象
23 14:30 南西 12 10km以上 11 47 1001
23 14:05 南西 12 10km以上 11 50 1001
23 14:00 南西 13 10km以上 11 50 1001
23 13:40 南西 12 10km以上 11 54 1000
23 13:00 南西 11 10km以上 11 58 1001
23 12:37 南西 9 10km以上 11 58 1001
23 12:30 南西 9 10km以上 11 58 1001
23 12:00 南西 10 10km以上 10 66 1002
23 11:35 南西 9 10km以上 10 66 1002
23 11:30 南西 10 10km以上 10 66 1002
23 11:00 南西 8 10km以上 9 71 1003
23 10:30 南南西 10 10km以上 8 71 1004
23 10:20 南南西 9 10km以上 8 76 1004
23 10:00 8 10km以上 6 81 1005
23 09:30 7 10km以上 6 87 1005
23 09:00 5 10km以上 5 81 1006
23 08:30 5 10km以上 4 81 1006
23 08:00 南南東 3 10km以上 3 87 1006
23 07:30 南南東 3 10km以上 3 81 1007
23 07:00 南南東 2 10km以上 2 87 1007
23 06:30 2 10km以上 3 81 1007
23 06:00 東南東 1 10km以上 3 81 1007
23 05:30 不定 1 10km以上 3 81 1007
23 05:00 不定 1 10km以上 2 87 1007
23 04:30 不定 1 10km以上 2 87 1007
23 04:00 西 2 10km以上 2 93 1007
23 03:30 西 4 10km以上 1 93 1007
23 03:00 北西 4 10km以上 2 87 1007
23 02:30 6 10km以上 3 87 1007
23 02:00 北北西 7 10km以上 2 87 1007
23 01:30 北北西 7 10km以上 2 87 1007
23 01:00 北西 6 10km以上 1 93 1007
23 00:30 北北西 9 10km以上 2 93 1006
23 00:06 北北西 8 7,000m 2 93 1006 弱い雪 弱い雨
23 00:00 北北西 8 7,000m 2 93 1006 弱い雪 弱い雨
22 23:30 北北西 9 4,500m 1 100 1007 弱い雪 もや
22 23:00 北北西 9 4,500m 1 100 1007 弱い雪 もや
22 22:30 10 6,000m 2 93 1007 弱い雪
22 22:17 11 5,000m 2 100 1007 弱い雪 もや
22 22:00 北北西 9 3,500m 1 100 1007 弱い雪 もや
22 21:49 北北西 9 2,500m 1 100 1007 弱い雪
22 21:30 北北西 9 900m 1 100 1008
22 21:05 北北西 8 900m 1 100 1008
22 21:00 北北西 8 900m 1 100 1009
22 20:30 10 600m 1 100 1009
22 20:18 10 500m 1 100 1009
22 20:00 北北西 11 600m 1 100 1010
22 19:36 北北西 10 600m 0 100 1009
22 19:20 10 500m 1 93 1010
22 19:10 10 600m 1 93 1010
22 19:00 10 800m 1 100 1010
22 18:50 9 800m 1 100 1010
22 18:30 10 1,000m 1 100 1011 弱い雪
22 18:25 9 1,000m 1 100 1011 弱い雪
22 18:18 9 1,000m 1 100 1011 弱い雪
22 18:08 9 900m 1 100 1011
22 18:00 北北西 10 700m 1 100 1012
22 17:44 北北西 9 600m 0 100 1012
22 17:36 北北西 9 700m 1 100 1012
22 17:30 北北西 9 900m 1 100 1012
22 17:00 9 800m 1 100 1012
22 16:40 9 700m 1 100 1012
22 16:30 9 700m 1 100 1013
22 16:29 9 800m 1 100 1013
22 16:18 9 900m 1 100 1013
22 16:00 10 1,000m 1 100 1013 弱い雪
22 15:39 9 1,000m 1 100 1014 弱い雪
22 15:30 9 1,500m 2 93 1014 弱い雪
22 15:12 10 1,000m 2 93 1014 弱い雪
22 15:00 9 1,500m 1 100 1014 弱い雪
22 14:46 9 1,200m 1 100 1014 弱い雪
22 14:30 9 900m 1 100 1014
22 14:00 9 900m 2 93 1015
22 13:46 9 800m 2 93 1015
22 13:35 9 2,000m 2 93 1016 弱い雪
22 13:30 9 3,500m 2 93 1016 弱い雪
22 13:15 9 4,500m 2 93 1016 弱い雪
22 13:09 9 5,000m 3 93 1016 弱い雪
22 12:40 9 9,000m 2 93 1017 弱い雨 弱い雪
22 12:30 9 8,000m 3 93 1017 弱い雨 弱い雪
22 12:00 8 8,000m 2 93 1017 弱い雨 弱い雪
22 11:30 8 7,000m 3 87 1018 弱いしゅう雨 弱いしゅう雪
22 11:10 8 8,000m 3 87 1019 弱いしゅう雨 弱いしゅう雪
22 11:00 8 8,000m 3 87 1019 弱いしゅう雪 弱いしゅう雨
22 10:30 8 9,000m 3 87 1020 弱い雪 弱い雨
22 10:00 7 9,000m 4 81 1020 弱い雨
22 09:30 7 10km以上 4 81 1021 弱い雨
22 09:00 7 10km以上 4 81 1020 弱い雨
22 08:30 北北東 7 10km以上 4 75 1020 弱い雨
22 08:00 北北東 8 10km以上 5 70 1020 弱い雨 弱い雪
22 07:30 6 10km以上 5 65 1020 弱い雨
22 07:00 北北東 5 10km以上 5 65 1020
22 06:30 北北東 6 10km以上 5 65 1019
22 06:00 5 10km以上 6 57 1019
22 05:30 北北東 5 10km以上 5 56 1019
22 05:00 3 10km以上 6 49 1019
22 04:30 4 10km以上 6 49 1019
22 04:00 北北西 3 10km以上 5 52 1018
22 03:30 北北東 4 10km以上 5 56 1018
22 03:00 北北東 5 10km以上 5 61 1018
22 02:30 6 10km以上 6 52 1018
22 02:00 北北東 6 10km以上 6 52 1019
22 01:30 北北東 7 10km以上 5 56 1018
22 01:00 北北東 6 10km以上 6 57 1018
22 00:30 北北東 7 10km以上 6 52 1018
22 00:00 8 10km以上 7 53 1018
21 23:30 8 10km以上 7 53 1018
21 23:00 8 10km以上 7 61 1018
21 22:30 8 10km以上 8 57 1017
21 22:00 北北西 9 10km以上 8 49 1017
21 21:30 北北西 9 10km以上 8 46 1017
21 21:00 北北西 6 10km以上 9 50 1017
21 20:30 北西 4 10km以上 9 66 1017
21 20:00 北西 1 10km以上 9 62 1016
21 19:30 不定 2 10km以上 10 62 1015
21 19:00 3 10km以上 10 54 1015
21 18:30 4 10km以上 9 57 1015
21 18:00 南南東 4 10km以上 10 54 1015
21 17:30 南南東 5 10km以上 9 57 1014
21 17:00 南南東 4 10km以上 10 54 1014
21 16:30 南南東 4 10km以上 10 54 1014
21 16:00 南東 3 10km以上 10 66 1014
21 15:30 東南東 3 10km以上 10 62 1014
21 15:00 3 10km以上 10 62 1014
RJTT 230530Z 23023G33KT 9999 FEW025 11/M00 Q1001 NOSIG RMK 1CU025 A2958
RJTT 230505Z 23024G34KT 9999 FEW025 11/01 Q1001 RMK 1CU025 A2956
RJTT 230500Z 23025KT 9999 FEW025 11/01 Q1001 TEMPO 23026G36KT RMK 1CU025 A2956 MOD TURB OBS AT 0455Z 10NM N STONE BTN FL170 AND 9000FT IN DES BY GLF5
RJTT 230440Z 23024G34KT 9999 FEW025 11/02 Q1000 RMK 1CU025 A2956
RJTT 230400Z 23021G31KT 9999 FEW020 11/03 Q1001 NOSIG RMK 1CU020 A2956
RJTT 230337Z 23017G28KT 9999 FEW020 11/03 Q1001 RMK 1CU020 A2957
RJTT 230330Z 23017KT 9999 FEW020 11/03 Q1001 TEMPO 23022G32KT
RJTT 230300Z 23019KT 180V250 9999 FEW020 10/04 Q1002 TEMPO 23022G32KT RMK 1CU020 A2959 MOD TURB OBS AT 0240Z BAYGE TO YANAG BTN 12000FT AND FL170 IN CMB BY B763
RJTT 230235Z 22018G28KT 9999 FEW020 10/04 Q1002 RMK 1CU020 A2959 P/FR
RJTT 230230Z 22019KT 9999 FEW020 10/04 Q1002 TEMPO 23020G30KT RMK 1CU020 A2959
RJTT 230200Z 22016KT 9999 FEW015 09/04 Q1003 TEMPO 23020G30KT RMK 1CU015 A2962
RJTT 230130Z 21019KT 9999 FEW015 08/03 Q1004 TEMPO 23020G30KT
RJTT 230120Z 20017G28KT 9999 FEW015 08/04 Q1004 RMK 1CU015 A2966 P/FR
RJTT 230100Z 17016KT 9999 FEW010 06/03 Q1005 NOSIG RMK 1CU010 A2968
RJTT 230030Z 17013KT 9999 FEW010 06/04 Q1005 NOSIG RMK 1CU010 A2970
RJTT 230000Z 18009KT 9999 FEW020 05/02 Q1006 NOSIG RMK 1CU020 A2971
RJTT 222330Z 17010KT 9999 FEW020 04/01 Q1006 NOSIG RMK 1CU020 A2973
RJTT 222300Z 15006KT 9999 FEW020 03/01 Q1006 NOSIG RMK 1CU020 A2973
RJTT 222230Z 16006KT 9999 FEW020 03/M00 Q1007 NOSIG RMK 1CU020 A2974
RJTT 222200Z 15004KT 9999 FEW015 02/M00 Q1007 NOSIG RMK 1CU015 A2975
RJTT 222130Z 17003KT 9999 FEW015 03/00 Q1007 NOSIG RMK 1CU015 A2975
RJTT 222100Z 11002KT 9999 FEW015 SCT040 03/00 Q1007 NOSIG RMK 1CU015 3SC040 A2975
RJTT 222030Z VRB01KT 9999 FEW015 BKN045 03/M00 Q1007 NOSIG RMK 1CU015 6SC045 A2974
RJTT 222000Z VRB01KT 9999 FEW015 BKN050 02/M00 Q1007 NOSIG RMK 1CU015 6SC050 A2976
RJTT 221930Z VRB02KT 9999 FEW015 BKN050 02/M00 Q1007 NOSIG RMK 1CU015 7SC050 A2975
RJTT 221900Z 26003KT 210V300 9999 FEW015 BKN060 02/01 Q1007 NOSIG RMK 1CU015 7SC060 A2975
RJTT 221830Z 28007KT 9999 FEW015 SCT050 BKN080 01/M00 Q1007 NOSIG RMK 1CU015 3SC050 5AC080 A2975
RJTT 221800Z 31008KT 280V340 9999 FEW010 BKN050 BKN070 02/M00 Q1007 NOSIG RMK 1ST010 5SC050 7AC070 A2976
RJTT 221730Z 35011KT 9999 FEW008 SCT050 BKN070 03/01 Q1007 NOSIG RMK 1ST008 3SC050 7AC070 A2974
RJTT 221700Z 33013KT 9999 FEW008 SCT050 BKN070 02/00 Q1007 NOSIG RMK 1ST008 4SC050 7AC070 A2974
RJTT 221630Z 33013KT 9999 FEW008 SCT012 BKN050 02/00 Q1007 NOSIG RMK 1ST008 4ST012 7SC050 A2975
RJTT 221600Z 32012KT 9999 FEW008 BKN012 BKN050 01/00 Q1007 BECMG FEW008 BKN015 RMK 1ST008 5ST012 7SC050 A2974
RJTT 221530Z 34017KT 9999 FEW008 BKN010 BKN050 02/01 Q1006 NOSIG RMK 1ST008 5ST010 7SC050 A2973
RJTT 221506Z 34015G25KT 7000 -SNRA FEW006 SCT008 BKN010 02/01 Q1006 RMK 1ST006 4ST008 7ST010 A2973
RJTT 221500Z 34015KT 7000 -SNRA FEW006 SCT008 BKN010 02/01 Q1006 NOSIG RMK 1ST006 4ST008 7ST010 A2973
RJTT 221430Z 33017KT 4500 -SN BR FEW006 SCT008 BKN010 01/01 Q1007 TEMPO 3000 -SN BR FEW005 BKN008
RJTT 221400Z 33017KT 4500 -SN BR FEW006 SCT008 BKN010 01/01 Q1007 TEMPO 34020G30KT 3000 -SN BR FEW005 BKN008 RMK 1ST006 4ST008 7ST010 A2974 MOD TURB OBS AT 1338Z 5NM S ARLON BTN 5000FT AND 4000FT IN DES BY B772
RJTT 221330Z 35019G29KT 6000 -SN FEW006 SCT008 BKN010 02/01 Q1007 TEMPO 3000 -SN
RJTT 221317Z 35021G31KT 5000 -SN BR FEW005 SCT007 BKN009 02/02 Q1007 RMK 1ST005 3ST007 6ST009 A2974
RJTT 221300Z 34018KT 3500 -SN BR FEW004 BKN006 BKN008 01/01 Q1007 TEMPO 34020G30KT 1500 -SN RMK 1ST004 5ST006 6ST008 A2975
RJTT 221249Z 34018KT 2500 -SN FEW004 BKN005 BKN007 01/01 Q1007 RMK 1ST004 6ST005 7ST007 A2976
RJTT 221230Z 34018KT 0900 R34L/P1800N R22/P1800N R34R/0100VP1800D R23/P1800N SN FEW003 BKN005 BKN006 01/01 Q1008 NOSIG
RJTT 221205Z 34016G28KT 0900 R34L/P1800N R22/P1800N R34R/1500VP1800D R23/P1800N SN FEW003 BKN004 BKN006 01/01 Q1008 RMK 1ST003 6ST004 7ST006 A2979
RJTT 221200Z 34016KT 0900 R34L/P1800N R22/P1800U R34R/P1800N R23/P1800N SN FEW003 BKN004 BKN006 01/01 Q1009 NOSIG
RJTT 221130Z 35020KT 0600 R34L/P1800N R22/1500N R34R/P1800N R23/1800N SN FEW003 BKN004 BKN006 01/01 Q1009 NOSIG
RJTT 221118Z 35020KT 0500 R34L/P1800N R22/1200N R34R/1000VP1800U R23/1200VP1800U SN FEW003 BKN004 BKN006 01/01 Q1009 RMK 2ST003 6ST004 7ST006 A2982
RJTT 221100Z 34021KT 0600 R34L/P1800N R22/1500N R34R/1100V1700N R23/1100V1500D SN FEW003 BKN004 BKN006 01/01 Q1010 NOSIG
RJTT 221036Z 34019KT 0600 R34L/P1800U R22/1400V1800U R34R/1400U R23/1400U SN FEW003 BKN004 BKN006 00/00 Q1009 RMK 2ST003 6ST004 7ST006 A2982
RJTT 221020Z 35020KT 0500 R34L/P1800N R22/1300D R34R/1200V1700D R23/1000V1400U SN FEW003 BKN004 BKN006 01/00 Q1010 RMK 2ST003 6ST004 7ST006 A2983
RJTT 221010Z 35020KT 0600 R34L/P1800N R22/1300N R34R/1000VP1800D R23/1400D SN FEW003 BKN004 BKN006 01/00 Q1010 RMK 2ST003 6ST004 7ST006 A2982
RJTT 221000Z 35019KT 0800 R34L/P1800N R22/1200U R34R/1400VP1800U R23/1400U SN FEW003 BKN004 BKN006 01/01 Q1010 TEMPO 0500 SN
RJTT 220950Z 35018KT 0800 R34L/P1800N R22/1300VP1800D R34R/1700D R23/1300VP1800D SN FEW003 BKN004 BKN006 01/01 Q1010 RMK 2ST003 6ST004 7ST006 A2984 MOD TURB OBS AT 0934Z 10NM S SEKIYADO BTN 13000FT AND FL150 IN CMB BY B737
RJTT 220930Z 35019KT 1000 R34L/P1800N R22/P1800N R34R/P1800N R23/P1800N -SN FEW003 BKN004 BKN006 01/01 Q1011 NOSIG
RJTT 220925Z 35018KT 1000 R34L/P1800N R22/P1800N R34R/1200VP1800U R23/P1800N -SN FEW003 BKN004 BKN006 01/01 Q1011 RMK 2ST003 6ST004 7ST006 A2986 MOD TURB OBS AT 0925Z 12NM SW COLOR 11000FT BY B763 P/FR
RJTT 220918Z 35018KT 1000 R34L/P1800N R22/P1800N R34R/1200VP1800D R23/P1800N -SN FEW003 BKN004 BKN006 01/01 Q1011 RMK 2ST003 6ST004 7ST006 A2987 P/FR
RJTT 220908Z 35018KT 0900 R34L/P1800N R22/1800U R34R/P1800N R23/P1800N SN FEW003 BKN004 BKN006 01/01 Q1011 RMK 2ST003 6ST004 7ST006 A2988
RJTT 220900Z 34019KT 0700 R34L/P1800N R22/1600U R34R/P1800N R23/1600VP1800U SN FEW003 BKN004 BKN006 01/01 Q1012 TEMPO 0500 SN RMK 2ST003 6ST004 7ST006 A2989
RJTT 220844Z 34018KT 0600 R34L/P1800N R22/1300D R34R/1000VP1800D R23/P1800N SN FEW003 BKN004 BKN006 00/00 Q1012 RMK 2ST003 5ST004 7ST006 A2990
RJTT 220836Z 34018KT 0700 R34L/P1800N R22/1700D R34R/P1800N R23/P1800N SN FEW003 BKN004 BKN006 01/01 Q1012 RMK 2ST003 5ST004 7ST006 A2991
RJTT 220830Z 34017KT 0900 R34L/P1800N R22/P1800N R34R/P1800N R23/P1800N SN FEW003 BKN004 BKN006 01/01 Q1012 TEMPO 0500 SN RMK 2ST003 5ST004 7ST006 A2990
RJTT 220800Z 35018KT 0800 R34L/P1800N R22/P1800N R34R/1400VP1800U R23/P1800N SN FEW003 BKN004 BKN008 01/01 Q1012 TEMPO 0500 SN RMK 2ST003 5ST004 7ST008 A2991
RJTT 220740Z 35017KT 0700 R34L/0600VP1800U R22/P1800N R34R/P1800N R23/P1800N SN FEW003 BKN004 BKN010 01/01 Q1012 RMK 1ST003 5ST004 7ST010 A2991 P/FR
RJTT 220730Z 35017KT 0700 R34L/0550VP1800D R22/P1800N R34R/P1800N R23/P1800N SN FEW003 BKN004 BKN010 01/01 Q1013 TEMPO 0500 SN RMK 1ST003 5ST004 7ST010 A2992
RJTT 220729Z 35017KT 0800 R34L/0650VP1800D R22/P1800N R34R/P1800N R23/P1800N SN FEW003 BKN004 BKN010 01/01 Q1013 RMK 1ST003 5ST004 7ST010 A2992
RJTT 220718Z 36017KT 0900 R34L/P1800D R22/P1800N R34R/P1800N R23/P1800N SN FEW003 BKN004 BKN010 01/01 Q1013 RMK 1ST003 5ST004 7ST010 A2993
RJTT 220700Z 36019KT 1000 R34L/P1800N R22/P1800N R34R/P1800N R23/P1800N -SN FEW003 BKN005 BKN010 01/01 Q1013 TEMPO 0500 SN RMK 1ST003 6ST005 7ST010 A2994
RJTT 220639Z 36018KT 1000 R34L/P1800N R22/P1800N R34R/P1800N R23/P1800N -SN FEW003 BKN005 BKN010 01/01 Q1014 RMK 1ST003 5ST005 6ST010 A2995
RJTT 220630Z 36018KT 1500 R34L/P1800N R22/P1800N R34R/P1800N R23/P1800N -SN FEW003 BKN005 BKN012 02/01 Q1014 TEMPO 0500 SN RMK 1ST003 6ST005 7SC012 A2995
RJTT 220612Z 01019KT 1000 R34L/P1800N R22/P1800N R34R/P1800N R23/P1800N -SN FEW003 BKN005 BKN008 02/01 Q1014 RMK 1ST003 6ST005 7ST008 A2996
RJTT 220600Z 36018KT 1500 R34L/P1800N R22/P1800N R34R/P1800N R23/P1800N -SN FEW003 BKN005 BKN008 01/01 Q1014 TEMPO 0500 SN RMK 1ST003 5ST005 7ST008 A2996
RJTT 220546Z 36017KT 1200 R34L/P1800N R22/P1800N R34R/P1800N R23/P1800N -SN FEW003 BKN005 BKN008 01/01 Q1014 RMK 1ST003 5ST005 7ST008 A2996
RJTT 220530Z 01018KT 0900 R34L/P1800N R22/P1800N R34R/P1800N R23/P1800N SN FEW003 BKN004 BKN008 01/01 Q1014 TEMPO 0500 SN
RJTT 220500Z 01018KT 0900 R34L/P1800N R22/P1800N R34R/P1800N R23/P1800N SN FEW003 BKN005 BKN012 02/01 Q1015 TEMPO 0500 SN RMK 1ST003 5ST005 6SC012 A2998
RJTT 220446Z 01017KT 0800 R34L/P1800N R22/1600VP1800N R34R/P1800N R23/P1800N SN FEW003 BKN004 BKN012 02/01 Q1015 RMK 1ST003 5ST004 6SC012 A2998 P/FR
RJTT 220435Z 01018KT 2000 -SN FEW005 BKN007 BKN009 02/01 Q1016 RMK 1ST005 5ST007 6ST009 A3001
RJTT 220430Z 01018KT 3500 -SN FEW005 SCT007 BKN009 02/01 Q1016 TEMPO 3000 -SN
RJTT 220415Z 01017KT 4500 -SN FEW005 SCT007 BKN009 02/01 Q1016 RMK 1ST005 4ST007 5ST009 A3002
RJTT 220409Z 01018KT 5000 -SN FEW006 SCT008 BKN010 03/02 Q1016 RMK 1ST006 4ST008 6ST010 A3002
RJTT 220340Z 01017KT 9000 -RASN FEW005 SCT008 BKN010 02/01 Q1017 RMK 1ST005 3ST008 6ST010 A3003
RJTT 220330Z 01017KT 8000 -RASN FEW005 BKN009 BKN015 03/02 Q1017 NOSIG RMK 1ST005 5ST009 6SC015 A3003
RJTT 220300Z 01015KT 8000 -RASN FEW006 BKN009 BKN020 02/01 Q1017 NOSIG RMK 1ST006 5ST009 6SC020 A3005 MOD TURB OBS AT 0233Z 15NM SW ADDUM BTN 13000FT AND 10000FT BY A321 AND OBS AT 0250Z 5NM W ADDUM BTN FL140 AND 11000FT BY B788
RJTT 220230Z 36016KT 7000 -SHRASN FEW006 SCT010 BKN030 03/01 Q1018 NOSIG RMK 1ST006 4CU010 7SC030 A3008
RJTT 220210Z 36015KT 8000 -SHRASN FEW008 SCT010 BKN035 03/01 Q1019 RMK 1ST008 4CU010 7SC035 A3009
RJTT 220200Z 36016KT 8000 -SHSNRAGS FEW008 SCT012 BKN035 03/01 Q1019 NOSIG RMK 1ST008 3CU012 7SC035 A3010 SMALL HAIL
RJTT 220130Z 01015KT 9000 -SNRA FEW012 BKN030 03/01 Q1020 NOSIG RMK 1CU012 7SC030 A3012 MOD TURB OBS AT 0120Z AROUND SEKID BTN 10000FT AND 13000FT IN CMB BY B738
RJTT 220100Z 36013KT 9000 -RA FEW015 BKN030 04/01 Q1020 NOSIG RMK 1CU015 7SC030 A3014
RJTT 220030Z 36014KT 9999 -RA FEW015 BKN030 04/01 Q1021 NOSIG RMK 1CU015 7SC030 A3015
RJTT 220000Z 36014KT 9999 -RA FEW015 BKN030 04/01 Q1020 NOSIG RMK 1CU015 7SC030 A3014
RJTT 212330Z 02014KT 9999 -RA FEW015 BKN030 04/M00 Q1020 NOSIG RMK 1CU015 7SC030 A3013
RJTT 212300Z 02016KT 9999 -RASN FEW020 BKN030 05/M00 Q1020 NOSIG RMK 2SC020 7SC030 A3012
RJTT 212230Z 01012KT 9999 -RA BKN030 BKN045 05/M01 Q1020 NOSIG RMK 5SC030 7SC045 A3013
RJTT 212200Z 02010KT 9999 SCT030 BKN045 05/M01 Q1020 NOSIG RMK 3SC030 7SC045 A3012
RJTT 212130Z 03011KT 9999 SCT035 BKN045 05/M01 Q1019 NOSIG RMK 3SC035 7SC045 A3012
RJTT 212100Z 01009KT 9999 FEW030 BKN045 06/M02 Q1019 NOSIG RMK 1CU030 7SC045 A3011
RJTT 212030Z 02009KT 9999 FEW035 SCT050 BKN060 05/M03 Q1019 NOSIG RMK 1CU035 4SC050 7SC060 A3011
RJTT 212000Z 01006KT 9999 SCT060 BKN/// 06/M04 Q1019 NOSIG RMK 4SC060 A3010
RJTT 211930Z 36007KT 9999 FEW050 BKN/// 06/M04 Q1019 NOSIG
RJTT 211900Z 33005KT 9999 FEW050 BKN/// 05/M04 Q1018 NOSIG RMK 1SC050 A3009
RJTT 211830Z 02007KT 9999 FEW050 SCT150 BKN/// 05/M03 Q1018 NOSIG
RJTT 211800Z 03010KT 9999 FEW050 BKN150 BKN/// 05/M02 Q1018 NOSIG RMK 1SC050 6AC150 A3008
RJTT 211730Z 01011KT 9999 FEW050 BKN150 06/M03 Q1018 NOSIG RMK 1SC050 7AC150 A3009
RJTT 211700Z 02011KT 9999 FEW050 BKN170 06/M03 Q1019 NOSIG RMK 1SC050 7AC170 A3010
RJTT 211630Z 03013KT 9999 FEW050 SCT180 BKN/// 05/M03 Q1018 NOSIG
RJTT 211600Z 03011KT 9999 FEW050 BKN/// 06/M02 Q1018 NOSIG RMK 1SC050 A3008
RJTT 211530Z 02014KT 9999 FEW050 BKN/// 06/M03 Q1018 NOSIG
RJTT 211500Z 01016KT 9999 FEW050 BKN/// 07/M02 Q1018 NOSIG RMK 1SC050 A3008
RJTT 211430Z 36016KT 9999 FEW050 BKN/// 07/M02 Q1018 NOSIG
RJTT 211400Z 01016KT 9999 FEW050 BKN/// 07/M00 Q1018 NOSIG RMK 1SC050 A3007
RJTT 211330Z 36015KT 9999 FEW050 BKN/// 08/00 Q1017 NOSIG RMK 1SC050 A3005
RJTT 211300Z 34017KT 9999 FEW050 BKN/// 08/M02 Q1017 NOSIG RMK 1SC050 A3005
RJTT 211230Z 34017KT 9999 FEW050 BKN/// 08/M03 Q1017 NOSIG
RJTT 211200Z 34011KT 9999 FEW025 BKN/// 09/M01 Q1017 NOSIG RMK 1CU025 A3004
RJTT 211130Z 32007KT 9999 FEW025 BKN/// 09/03 Q1017 NOSIG
RJTT 211100Z 32002KT 9999 FEW025 SCT/// 09/02 Q1016 NOSIG
RJTT 211030Z VRB04KT CAVOK 10/03 Q1015 BECMG 36010KT
RJTT 211000Z 19005KT 160V230 9999 FEW050 SCT/// 10/01 Q1015 NOSIG RMK 1SC050 A2999
RJTT 210930Z 17008KT 110V200 9999 FEW050 SCT/// 09/01 Q1015 NOSIG RMK 1SC050 A2997
RJTT 210900Z 16008KT 9999 FEW050 10/01 Q1015 NOSIG RMK 1SC050 A2997
RJTT 210830Z 16009KT 9999 FEW050 09/01 Q1014 NOSIG RMK 1SC050 A2996 MOD TURB OBS AT 0802Z 35NM S HANEDA BTN 10000FT AND 8000FT IN DES BY B788
RJTT 210800Z 16008KT 130V200 9999 FEW030 10/01 Q1014 NOSIG RMK 1CU030 A2995
RJTT 210730Z 16007KT 120V200 9999 FEW030 10/01 Q1014 NOSIG RMK 1CU030 A2995
RJTT 210700Z 13005KT 9999 FEW030 10/04 Q1014 NOSIG RMK 1CU030 A2994
RJTT 210630Z 11005KT 9999 FEW030 10/03 Q1014 NOSIG RMK 1CU030 A2995
RJTT 210600Z 10005KT 9999 FEW030 10/03 Q1014 NOSIG RMK 1CU030 A2995